Time;durP1;ratioP1;P1;durP2;ratioP2;P2;SDS_P1;SDS_P2;PMS_P1;PMS_P2;Temp;Humidity;BMP_temperature;BMP_pressure;BME280_temperature;BME280_humidity;BME280_pressure;Samples;Min_cycle;Max_cycle;Signal;HPM_P1;HPM_P2
2022/06/26 00:00:20;;;;;;;;;;;27.90;37.30;;;;;;5155912;27;19922;-68
2022/06/26 00:02:46;;;;;;;;;;;28.00;37.30;;;;;;5155589;27;19907;-68
2022/06/26 00:05:13;;;;;;;;;;;28.10;36.90;;;;;;5153510;27;20259;-68
2022/06/26 00:07:38;;;;;;;;;;;28.10;36.60;;;;;;5155477;27;19903;-68
2022/06/26 00:10:05;;;;;;;;;;;28.20;36.90;;;;;;5153535;27;19933;-68
2022/06/26 00:12:31;;;;;;;;;;;28.10;36.90;;;;;;5154980;27;20317;-68
2022/06/26 00:14:56;;;;;;;;;;;28.10;36.70;;;;;;5154908;27;19903;-68
2022/06/26 00:17:22;;;;;;;;;;;28.20;36.80;;;;;;5154930;27;19906;-67
2022/06/26 00:19:48;;;;;;;;;;;28.20;36.90;;;;;;5155240;27;20366;-68
2022/06/26 00:22:14;;;;;;;;;;;28.20;36.70;;;;;;5154876;27;19907;-67
2022/06/26 00:24:42;;;;;;;;;;;28.10;36.80;;;;;;5153303;27;19926;-68
2022/06/26 00:27:07;;;;;;;;;;;28.10;36.80;;;;;;5154626;27;19910;-67
2022/06/26 00:29:34;;;;;;;;;;;28.00;36.50;;;;;;5154535;27;20290;-69
2022/06/26 00:32:00;;;;;;;;;;;28.10;36.60;;;;;;5153962;27;19925;-68
2022/06/26 00:34:26;;;;;;;;;;;28.10;36.80;;;;;;5154512;27;19983;-68
2022/06/26 00:36:52;;;;;;;;;;;28.10;36.60;;;;;;5154942;27;20344;-67
2022/06/26 00:39:18;;;;;;;;;;;28.10;36.30;;;;;;5154262;27;19907;-69
2022/06/26 00:41:43;;;;;;;;;;;28.10;36.30;;;;;;5154712;27;19902;-67
2022/06/26 00:44:17;;;;;;;;;;;28.10;36.20;;;;;;5152951;27;20262;-68
2022/06/26 00:46:43;;;;;;;;;;;28.10;36.40;;;;;;5154523;27;19906;-68
2022/06/26 00:49:09;;;;;;;;;;;28.10;36.40;;;;;;5154418;27;19959;-68
2022/06/26 00:51:36;;;;;;;;;;;28.00;36.50;;;;;;5154095;27;19903;-68
2022/06/26 00:54:02;;;;;;;;;;;28.00;36.50;;;;;;5154600;27;19914;-68
2022/06/26 00:56:28;;;;;;;;;;;28.00;36.40;;;;;;5154186;27;19947;-67
2022/06/26 00:58:54;;;;;;;;;;;28.00;36.40;;;;;;5154364;27;19966;-68
2022/06/26 01:01:20;;;;;;;;;;;28.00;36.40;;;;;;5153988;27;19934;-67
2022/06/26 01:03:46;;;;;;;;;;;28.00;36.60;;;;;;5153991;27;19903;-67
2022/06/26 01:06:11;;;;;;;;;;;28.00;36.70;;;;;;5153727;27;20042;-67
2022/06/26 01:08:37;;;;;;;;;;;28.10;36.80;;;;;;5154243;27;19918;-68
2022/06/26 01:11:17;;;;;;;;;;;28.00;36.90;;;;;;5153691;27;20378;-68
2022/06/26 01:13:46;;;;;;;;;;;28.00;36.90;;;;;;5154319;27;20351;-67
2022/06/26 01:16:13;;;;;;;;;;;28.00;37.10;;;;;;5153979;27;19935;-68
2022/06/26 01:18:39;;;;;;;;;;;28.00;37.10;;;;;;5154028;27;20330;-68
2022/06/26 01:21:06;;;;;;;;;;;28.00;37.20;;;;;;5153616;27;19910;-68
2022/06/26 01:23:32;;;;;;;;;;;28.10;37.10;;;;;;5153306;27;20068;-68
2022/06/26 01:25:57;;;;;;;;;;;28.10;37.30;;;;;;5153858;27;19965;-69
2022/06/26 01:28:23;;;;;;;;;;;28.10;37.20;;;;;;5153787;27;20027;-67
2022/06/26 01:30:49;;;;;;;;;;;28.10;37.30;;;;;;5153665;27;19903;-68
2022/06/26 01:33:15;;;;;;;;;;;28.10;37.60;;;;;;5153716;27;20258;-68
2022/06/26 01:35:41;;;;;;;;;;;28.10;37.60;;;;;;5153697;27;19903;-68
2022/06/26 01:38:08;;;;;;;;;;;28.10;37.60;;;;;;5153625;27;20325;-69
2022/06/26 01:40:34;;;;;;;;;;;28.10;37.70;;;;;;5153218;27;19903;-68
2022/06/26 01:43:00;;;;;;;;;;;28.20;37.80;;;;;;5153410;27;20060;-68
2022/06/26 01:45:26;;;;;;;;;;;28.10;37.80;;;;;;5153362;27;19903;-69
2022/06/26 01:47:53;;;;;;;;;;;28.10;37.90;;;;;;5153111;27;20364;-68
2022/06/26 01:50:19;;;;;;;;;;;28.10;38.30;;;;;;5153524;27;19995;-68
2022/06/26 01:52:45;;;;;;;;;;;28.10;38.10;;;;;;5153085;27;20082;-68
2022/06/26 01:55:11;;;;;;;;;;;28.10;38.10;;;;;;5153187;27;19903;-68
2022/06/26 01:57:37;;;;;;;;;;;28.10;38.30;;;;;;5153055;27;19903;-68
2022/06/26 02:00:06;;;;;;;;;;;28.10;38.30;;;;;;5152967;27;20001;-67
2022/06/26 02:02:32;;;;;;;;;;;28.20;38.30;;;;;;5153475;27;19997;-68
2022/06/26 02:04:58;;;;;;;;;;;28.20;38.30;;;;;;5152809;27;19987;-68
2022/06/26 02:07:25;;;;;;;;;;;28.20;38.20;;;;;;5153651;27;19903;-68
2022/06/26 02:15:19;;;;;;;;;;;28.30;37.50;;;;;;5153031;27;19914;-69
2022/06/26 02:17:45;;;;;;;;;;;28.40;37.80;;;;;;5153375;27;20014;-68
2022/06/26 02:20:11;;;;;;;;;;;28.50;37.60;;;;;;5152882;27;19911;-68
2022/06/26 02:22:37;;;;;;;;;;;28.60;37.30;;;;;;5151499;27;20247;-68
2022/06/26 02:25:04;;;;;;;;;;;28.80;37.10;;;;;;5152784;27;19907;-67
2022/06/26 02:27:30;;;;;;;;;;;28.80;37.70;;;;;;5153366;27;19903;-68
2022/06/26 02:29:55;;;;;;;;;;;28.90;37.00;;;;;;5153061;27;19923;-69
2022/06/26 02:32:21;;;;;;;;;;;29.00;36.80;;;;;;5152841;27;19903;-67
2022/06/26 02:34:47;;;;;;;;;;;29.00;36.80;;;;;;5152706;27;19910;-68
2022/06/26 02:37:13;;;;;;;;;;;29.00;36.90;;;;;;5152865;27;19967;-68
2022/06/26 02:39:38;;;;;;;;;;;29.00;37.00;;;;;;5152737;27;20321;-68
2022/06/26 02:42:05;;;;;;;;;;;29.00;37.20;;;;;;5152956;27;19903;-67
2022/06/26 02:44:31;;;;;;;;;;;28.90;37.50;;;;;;5152918;27;19907;-67
2022/06/26 02:46:56;;;;;;;;;;;28.90;37.80;;;;;;5152783;27;19909;-67
2022/06/26 02:49:22;;;;;;;;;;;28.80;37.90;;;;;;5151137;27;19915;-67
2022/06/26 02:51:48;;;;;;;;;;;28.80;38.10;;;;;;5153099;27;19903;-67
2022/06/26 02:54:14;;;;;;;;;;;28.70;38.90;;;;;;5151903;27;19903;-67
2022/06/26 02:56:39;;;;;;;;;;;28.50;39.20;;;;;;5156657;27;19919;-67
2022/06/26 02:59:05;;;;;;;;;;;28.40;39.40;;;;;;5156395;27;19937;-67
2022/06/26 03:01:31;;;;;;;;;;;28.40;39.60;;;;;;5156391;27;20006;-68
2022/06/26 03:03:57;;;;;;;;;;;28.30;39.50;;;;;;5156638;27;19907;-68
2022/06/26 03:06:22;;;;;;;;;;;28.30;39.80;;;;;;5154509;27;19933;-67
2022/06/26 03:08:48;;;;;;;;;;;28.30;40.10;;;;;;5156154;27;20266;-68
2022/06/26 03:11:14;;;;;;;;;;;28.30;39.90;;;;;;5156480;27;19910;-68
2022/06/26 03:13:40;;;;;;;;;;;28.20;39.70;;;;;;5156337;27;20275;-67
2022/06/26 03:16:06;;;;;;;;;;;28.20;40.00;;;;;;5156392;27;19903;-67
2022/06/26 03:18:31;;;;;;;;;;;28.30;40.50;;;;;;5156059;27;19993;-68
2022/06/26 03:20:57;;;;;;;;;;;28.20;40.80;;;;;;5156376;27;20301;-67
2022/06/26 03:24:01;;;;;;;;;;;28.20;40.80;;;;;;5154439;27;20005;-68
2022/06/26 03:26:09;;;;;;;;;;;28.20;41.20;;;;;;5155666;27;19914;-67
2022/06/26 03:28:34;;;;;;;;;;;28.20;41.90;;;;;;5155783;27;19911;-68
2022/06/26 03:31:00;;;;;;;;;;;28.20;42.20;;;;;;5155798;27;20003;-67
2022/06/26 03:33:26;;;;;;;;;;;28.20;42.20;;;;;;5155702;27;19903;-68
2022/06/26 03:35:52;;;;;;;;;;;28.10;42.30;;;;;;5155838;27;20308;-68
2022/06/26 03:38:17;;;;;;;;;;;28.10;42.10;;;;;;5155795;27;19934;-67
2022/06/26 03:40:43;;;;;;;;;;;28.00;42.00;;;;;;5154257;27;19902;-67
2022/06/26 03:43:11;;;;;;;;;;;28.00;42.20;;;;;;5155573;27;19911;-67
2022/06/26 03:45:39;;;;;;;;;;;28.00;42.10;;;;;;5155578;27;19934;-67
2022/06/26 03:48:05;;;;;;;;;;;28.00;42.40;;;;;;5155274;27;19911;-68
2022/06/26 03:50:31;;;;;;;;;;;28.00;41.80;;;;;;5155852;27;19975;-68
2022/06/26 03:52:57;;;;;;;;;;;28.00;41.70;;;;;;5153761;27;19991;-68
2022/06/26 03:55:22;;;;;;;;;;;28.10;41.30;;;;;;5153835;27;20029;-68
2022/06/26 03:57:48;;;;;;;;;;;28.10;41.40;;;;;;5155291;27;20377;-68
2022/06/26 04:00:14;;;;;;;;;;;28.10;41.10;;;;;;5155232;27;20335;-68
2022/06/26 04:02:40;;;;;;;;;;;28.20;41.00;;;;;;5155224;27;19911;-68
2022/06/26 04:05:08;;;;;;;;;;;28.30;40.80;;;;;;5154917;27;19903;-68
2022/06/26 04:07:34;;;;;;;;;;;28.40;40.40;;;;;;5155238;27;19967;-68
2022/06/26 04:10:00;;;;;;;;;;;28.40;40.30;;;;;;5154972;27;19911;-68
2022/06/26 04:12:26;;;;;;;;;;;28.50;40.30;;;;;;5155353;27;19910;-68
2022/06/26 04:14:52;;;;;;;;;;;28.50;40.50;;;;;;5155097;27;19903;-68
2022/06/26 04:17:18;;;;;;;;;;;28.50;40.70;;;;;;5155345;27;20333;-68
2022/06/26 04:19:43;;;;;;;;;;;28.60;40.90;;;;;;5154900;27;19945;-69
2022/06/26 04:22:09;;;;;;;;;;;28.70;40.50;;;;;;5154809;27;20251;-68
2022/06/26 04:24:35;;;;;;;;;;;28.80;39.30;;;;;;5155106;27;20327;-68
2022/06/26 04:27:01;;;;;;;;;;;28.90;39.00;;;;;;5153398;27;19983;-68
2022/06/26 04:29:27;;;;;;;;;;;29.10;39.70;;;;;;5154646;27;20078;-68
2022/06/26 04:31:52;;;;;;;;;;;29.10;39.80;;;;;;5155049;27;19907;-67
2022/06/26 04:34:18;;;;;;;;;;;29.30;39.60;;;;;;5154401;27;19910;-67
2022/06/26 04:36:44;;;;;;;;;;;29.40;40.30;;;;;;5154717;27;20391;-68
2022/06/26 04:39:10;;;;;;;;;;;29.50;40.70;;;;;;5154405;27;19989;-68
2022/06/26 04:41:36;;;;;;;;;;;29.50;40.70;;;;;;5154459;27;19997;-68
2022/06/26 04:44:06;;;;;;;;;;;29.70;40.90;;;;;;5154394;27;19912;-68
2022/06/26 04:46:32;;;;;;;;;;;29.60;40.70;;;;;;5154722;27;19910;-68
2022/06/26 04:48:58;;;;;;;;;;;29.70;40.70;;;;;;5154212;27;19910;-68
2022/06/26 04:51:24;;;;;;;;;;;29.80;40.60;;;;;;5154701;27;20212;-68
2022/06/26 04:53:50;;;;;;;;;;;30.00;40.70;;;;;;5154119;27;20242;-68
2022/06/26 04:56:16;;;;;;;;;;;30.10;40.60;;;;;;5154195;27;20429;-68
2022/06/26 04:58:42;;;;;;;;;;;30.20;40.20;;;;;;5154244;27;19941;-68
2022/06/26 05:01:08;;;;;;;;;;;30.40;40.50;;;;;;5154114;27;19906;-68
2022/06/26 05:03:33;;;;;;;;;;;30.70;39.80;;;;;;5154344;27;20345;-68
2022/06/26 05:05:59;;;;;;;;;;;31.50;39.20;;;;;;5153749;27;19911;-69
2022/06/26 05:08:25;;;;;;;;;;;32.60;38.30;;;;;;5153819;27;20373;-69
2022/06/26 05:10:51;;;;;;;;;;;33.70;37.50;;;;;;5154116;27;19907;-69
2022/06/26 05:13:17;;;;;;;;;;;34.70;36.40;;;;;;5152502;27;19903;-69
2022/06/26 05:15:43;;;;;;;;;;;35.70;35.70;;;;;;5154066;27;19926;-69
2022/06/26 05:18:09;;;;;;;;;;;36.40;34.20;;;;;;5151842;27;19911;-69
2022/06/26 05:20:34;;;;;;;;;;;37.00;35.00;;;;;;5153899;27;19910;-69
2022/06/26 05:23:00;;;;;;;;;;;37.30;35.20;;;;;;5153982;27;19902;-68
2022/06/26 05:25:26;;;;;;;;;;;37.40;35.30;;;;;;5153577;27;19903;-69
2022/06/26 05:27:52;;;;;;;;;;;37.80;34.30;;;;;;5152745;27;19947;-68
2022/06/26 05:30:18;;;;;;;;;;;38.70;35.10;;;;;;5153600;27;19946;-67
2022/06/26 05:32:44;;;;;;;;;;;39.00;32.10;;;;;;5152270;27;19906;-69
2022/06/26 05:35:10;;;;;;;;;;;39.60;31.90;;;;;;5153474;27;19950;-70
2022/06/26 05:37:36;;;;;;;;;;;40.40;32.30;;;;;;5153894;27;19955;-70
2022/06/26 05:40:01;;;;;;;;;;;40.60;32.30;;;;;;5153374;27;20363;-66
2022/06/26 05:42:27;;;;;;;;;;;41.00;30.90;;;;;;5153531;27;19903;-68
2022/06/26 05:44:53;;;;;;;;;;;41.30;31.00;;;;;;5153419;27;19914;-68
2022/06/26 05:47:19;;;;;;;;;;;41.50;30.40;;;;;;5153603;27;19962;-67
2022/06/26 05:49:45;;;;;;;;;;;41.50;30.70;;;;;;5153405;27;20255;-68
2022/06/26 05:52:10;;;;;;;;;;;41.90;30.80;;;;;;5153709;27;19903;-68
2022/06/26 05:54:36;;;;;;;;;;;42.10;30.70;;;;;;5153318;27;19903;-67
2022/06/26 05:57:02;;;;;;;;;;;42.40;30.00;;;;;;5153251;27;19909;-67
2022/06/26 05:59:28;;;;;;;;;;;43.00;29.90;;;;;;5153096;27;19903;-68
2022/06/26 06:01:53;;;;;;;;;;;43.00;29.50;;;;;;5153197;27;20291;-67
2022/06/26 06:04:19;;;;;;;;;;;43.40;29.00;;;;;;5153534;27;19910;-68
2022/06/26 06:06:45;;;;;;;;;;;43.80;29.20;;;;;;5152854;27;19976;-67
2022/06/26 06:09:11;;;;;;;;;;;44.10;29.00;;;;;;5153165;27;19911;-68
2022/06/26 06:11:37;;;;;;;;;;;44.70;28.90;;;;;;5151658;27;19910;-68
2022/06/26 06:14:03;;;;;;;;;;;45.40;28.60;;;;;;5153464;27;19937;-68
2022/06/26 06:16:28;;;;;;;;;;;45.80;28.20;;;;;;5153163;27;19903;-68
2022/06/26 06:18:54;;;;;;;;;;;46.20;28.10;;;;;;5153512;27;19944;-67
2022/06/26 06:21:20;;;;;;;;;;;46.70;27.90;;;;;;5152999;27;19903;-68
2022/06/26 06:23:46;;;;;;;;;;;47.50;28.00;;;;;;5153546;27;20220;-68
2022/06/26 06:26:12;;;;;;;;;;;48.20;27.50;;;;;;5151909;27;19903;-68
2022/06/26 06:28:38;;;;;;;;;;;48.70;27.00;;;;;;5153284;27;19911;-68
2022/06/26 06:31:04;;;;;;;;;;;49.20;27.10;;;;;;5155439;27;19903;-68
2022/06/26 06:33:30;;;;;;;;;;;49.50;26.80;;;;;;5157155;27;20006;-69
2022/06/26 06:35:56;;;;;;;;;;;49.60;26.20;;;;;;5157061;27;19903;-68
2022/06/26 06:38:22;;;;;;;;;;;49.90;26.30;;;;;;5157337;27;20036;-68
2022/06/26 06:40:47;;;;;;;;;;;49.50;25.60;;;;;;5157247;27;19994;-68
2022/06/26 06:43:13;;;;;;;;;;;49.90;25.80;;;;;;5157511;27;20018;-68
2022/06/26 06:45:39;;;;;;;;;;;50.20;25.70;;;;;;5157239;27;19903;-68
2022/06/26 06:48:06;;;;;;;;;;;50.60;25.70;;;;;;5156869;27;19909;-69
2022/06/26 06:50:31;;;;;;;;;;;50.90;25.70;;;;;;5156803;27;20358;-68
2022/06/26 06:52:57;;;;;;;;;;;51.20;25.70;;;;;;5157113;27;19914;-68
2022/06/26 06:55:23;;;;;;;;;;;51.20;25.40;;;;;;5156870;27;19907;-68
2022/06/26 06:57:49;;;;;;;;;;;51.40;25.40;;;;;;5156461;27;19903;-69
2022/06/26 07:00:16;;;;;;;;;;;51.40;25.70;;;;;;5157078;27;19951;-68
2022/06/26 07:02:41;;;;;;;;;;;51.50;25.50;;;;;;5156522;27;19948;-68
2022/06/26 07:05:08;;;;;;;;;;;51.00;25.40;;;;;;5156311;27;19903;-69
2022/06/26 07:07:34;;;;;;;;;;;50.80;25.10;;;;;;5156822;27;19932;-69
2022/06/26 07:10:00;;;;;;;;;;;51.20;25.00;;;;;;5156248;27;19917;-69
2022/06/26 07:12:26;;;;;;;;;;;51.30;25.00;;;;;;5154990;27;20379;-69
2022/06/26 07:14:52;;;;;;;;;;;51.40;24.70;;;;;;5156538;27;20357;-68
2022/06/26 07:17:21;;;;;;;;;;;51.00;25.10;;;;;;5156204;27;20036;-68
2022/06/26 07:19:47;;;;;;;;;;;50.40;25.90;;;;;;5156497;27;19947;-69
2022/06/26 07:22:12;;;;;;;;;;;50.10;25.90;;;;;;5156437;27;19903;-69
2022/06/26 07:24:39;;;;;;;;;;;49.40;26.10;;;;;;5156137;27;19903;-68
2022/06/26 07:27:05;;;;;;;;;;;48.30;26.60;;;;;;5156284;27;19944;-68
2022/06/26 07:29:31;;;;;;;;;;;47.40;26.50;;;;;;5156137;27;20000;-68
2022/06/26 07:31:57;;;;;;;;;;;46.60;26.90;;;;;;5156566;27;20359;-68
2022/06/26 07:34:24;;;;;;;;;;;45.60;26.90;;;;;;5155960;27;19948;-68
2022/06/26 07:36:50;;;;;;;;;;;45.20;27.80;;;;;;5156263;27;20372;-68
2022/06/26 07:39:18;;;;;;;;;;;44.90;28.00;;;;;;5155838;27;20351;-67
2022/06/26 07:41:44;;;;;;;;;;;44.70;28.00;;;;;;5155436;27;19967;-68
2022/06/26 07:44:10;;;;;;;;;;;44.10;27.30;;;;;;5155618;27;19903;-68
2022/06/26 07:46:37;;;;;;;;;;;43.70;26.90;;;;;;5155662;27;20422;-68
2022/06/26 07:49:03;;;;;;;;;;;43.50;27.50;;;;;;5155353;27;19911;-68
2022/06/26 07:51:29;;;;;;;;;;;43.50;27.50;;;;;;5155551;27;20267;-68
2022/06/26 07:53:55;;;;;;;;;;;43.00;26.50;;;;;;5155738;27;19903;-67
2022/06/26 07:56:20;;;;;;;;;;;42.80;27.30;;;;;;5155379;27;20025;-67
2022/06/26 07:58:46;;;;;;;;;;;42.20;27.60;;;;;;5155810;27;20407;-67
2022/06/26 08:01:12;;;;;;;;;;;42.20;28.10;;;;;;5155375;27;20335;-67
2022/06/26 08:03:38;;;;;;;;;;;42.40;28.00;;;;;;5155204;27;19909;-67
2022/06/26 08:06:04;;;;;;;;;;;42.50;28.10;;;;;;5155033;27;19919;-67
2022/06/26 08:08:30;;;;;;;;;;;42.50;28.50;;;;;;5155042;27;19914;-68
2022/06/26 08:10:56;;;;;;;;;;;42.50;28.10;;;;;;5155374;27;19914;-68
2022/06/26 08:13:22;;;;;;;;;;;42.40;28.60;;;;;;5155052;27;19910;-67
2022/06/26 08:15:47;;;;;;;;;;;42.30;29.20;;;;;;5155114;27;20372;-68
2022/06/26 08:18:13;;;;;;;;;;;42.20;29.10;;;;;;5155212;27;19907;-68
2022/06/26 08:20:39;;;;;;;;;;;41.90;30.00;;;;;;5153286;27;20066;-68
2022/06/26 08:23:05;;;;;;;;;;;42.00;29.80;;;;;;5155311;27;19947;-67
2022/06/26 08:25:31;;;;;;;;;;;42.00;29.40;;;;;;5154846;27;20255;-68
2022/06/26 08:27:57;;;;;;;;;;;42.20;29.60;;;;;;5155228;27;19907;-67
2022/06/26 08:30:22;;;;;;;;;;;42.20;29.60;;;;;;5154547;27;20411;-67
2022/06/26 08:32:48;;;;;;;;;;;42.00;29.50;;;;;;5154701;27;19910;-68
2022/06/26 08:35:15;;;;;;;;;;;41.90;29.40;;;;;;5154965;27;19903;-67
2022/06/26 08:37:42;;;;;;;;;;;41.90;29.20;;;;;;5154666;27;19985;-68
2022/06/26 08:40:08;;;;;;;;;;;41.80;28.50;;;;;;5154653;27;19914;-67
2022/06/26 08:42:39;;;;;;;;;;;41.90;28.80;;;;;;5154710;27;19910;-68
2022/06/26 08:45:05;;;;;;;;;;;41.70;28.60;;;;;;5153034;27;20322;-67
2022/06/26 08:47:33;;;;;;;;;;;41.60;28.30;;;;;;5154852;27;19983;-68
2022/06/26 08:50:00;;;;;;;;;;;41.50;28.70;;;;;;5153431;27;20001;-68
2022/06/26 08:52:27;;;;;;;;;;;41.50;28.90;;;;;;5153687;27;20261;-67
2022/06/26 08:54:53;;;;;;;;;;;41.30;29.30;;;;;;5154703;27;19903;-67
2022/06/26 08:57:20;;;;;;;;;;;41.40;29.40;;;;;;5154194;27;20258;-67
2022/06/26 08:59:45;;;;;;;;;;;41.40;28.90;;;;;;5154569;27;19903;-67
2022/06/26 09:02:12;;;;;;;;;;;41.30;29.00;;;;;;5154108;27;20323;-67
2022/06/26 09:04:38;;;;;;;;;;;41.20;29.40;;;;;;5152634;27;19958;-68
2022/06/26 09:07:07;;;;;;;;;;;41.20;29.30;;;;;;5153693;27;19930;-67
2022/06/26 09:09:36;;;;;;;;;;;41.10;30.30;;;;;;5153945;27;20406;-68
2022/06/26 09:12:01;;;;;;;;;;;41.10;29.70;;;;;;5152369;27;19903;-67
2022/06/26 09:14:29;;;;;;;;;;;41.20;29.70;;;;;;5153815;27;19914;-67
2022/06/26 09:16:56;;;;;;;;;;;41.10;30.00;;;;;;5154047;27;19903;-67
2022/06/26 09:19:28;;;;;;;;;;;40.80;29.60;;;;;;5153730;27;19903;-69
2022/06/26 09:22:08;;;;;;;;;;;40.60;30.00;;;;;;5152146;27;20250;-67
2022/06/26 09:24:36;;;;;;;;;;;40.60;29.80;;;;;;5154050;27;19907;-67
2022/06/26 09:27:06;;;;;;;;;;;40.30;30.00;;;;;;5153653;27;19974;-68
2022/06/26 09:29:33;;;;;;;;;;;39.90;30.40;;;;;;5153575;27;20319;-68
2022/06/26 09:32:12;;;;;;;;;;;40.00;30.90;;;;;;5153934;27;19913;-67
2022/06/26 09:34:42;;;;;;;;;;;40.10;30.60;;;;;;5152021;27;19952;-68
2022/06/26 09:37:10;;;;;;;;;;;40.10;30.50;;;;;;5153501;27;19910;-67
2022/06/26 09:39:36;;;;;;;;;;;40.20;30.30;;;;;;5153407;27;19909;-67
2022/06/26 09:42:21;;;;;;;;;;;40.10;30.20;;;;;;5153728;27;19903;-68
2022/06/26 09:44:48;;;;;;;;;;;40.10;29.90;;;;;;5153231;27;19910;-68
2022/06/26 09:47:23;;;;;;;;;;;39.80;29.80;;;;;;5153679;27;19951;-68
2022/06/26 09:49:51;;;;;;;;;;;39.60;30.10;;;;;;5151693;27;19911;-69
2022/06/26 09:52:17;;;;;;;;;;;39.00;31.20;;;;;;5151742;27;20227;-67
2022/06/26 09:54:43;;;;;;;;;;;38.60;31.90;;;;;;5153688;27;19903;-68
2022/06/26 09:57:09;;;;;;;;;;;38.30;33.20;;;;;;5151888;27;19907;-69
2022/06/26 09:59:35;;;;;;;;;;;38.40;33.60;;;;;;5153411;27;19950;-68
2022/06/26 10:07:31;;;;;;;;;;;38.10;34.10;;;;;;5157456;27;19922;-67
2022/06/26 10:09:57;;;;;;;;;;;37.80;33.90;;;;;;5157209;27;19911;-68
2022/06/26 10:12:23;;;;;;;;;;;37.60;34.40;;;;;;5155946;27;20251;-70
2022/06/26 10:14:53;;;;;;;;;;;37.60;33.80;;;;;;5157544;27;20311;-67
2022/06/26 10:17:30;;;;;;;;;;;37.60;33.90;;;;;;5157699;27;20347;-67
2022/06/26 10:19:58;;;;;;;;;;;37.70;34.60;;;;;;5157215;27;20000;-67
2022/06/26 10:22:24;;;;;;;;;;;37.90;33.20;;;;;;5157260;27;19919;-67
2022/06/26 10:24:55;;;;;;;;;;;37.60;33.60;;;;;;5157461;27;19955;-67
2022/06/26 10:27:28;;;;;;;;;;;37.80;33.90;;;;;;5157345;27;20381;-68
2022/06/26 10:30:08;;;;;;;;;;;37.80;33.10;;;;;;5156969;27;19922;-67
2022/06/26 10:32:34;;;;;;;;;;;37.80;33.20;;;;;;5155480;27;19957;-68
2022/06/26 10:35:00;;;;;;;;;;;37.70;33.30;;;;;;5157030;27;20374;-67
2022/06/26 10:37:26;;;;;;;;;;;37.50;33.90;;;;;;5155838;27;20246;-67
2022/06/26 10:39:53;;;;;;;;;;;37.50;33.60;;;;;;5157256;27;20288;-67
2022/06/26 10:45:14;;;;;;;;;;;37.80;33.50;;;;;;5157191;27;19929;-67
2022/06/26 10:47:40;;;;;;;;;;;37.80;33.50;;;;;;5156692;27;19910;-68
2022/06/26 10:50:06;;;;;;;;;;;37.90;33.20;;;;;;5156517;27;19911;-68
2022/06/26 10:52:32;;;;;;;;;;;38.00;33.00;;;;;;5156817;27;20362;-67
2022/06/26 10:54:58;;;;;;;;;;;38.10;32.60;;;;;;5156835;27;19945;-67
2022/06/26 10:57:33;;;;;;;;;;;38.10;33.10;;;;;;5156438;27;19957;-68
2022/06/26 11:00:00;;;;;;;;;;;38.20;33.30;;;;;;5156625;27;19903;-71
2022/06/26 11:02:33;;;;;;;;;;;38.10;33.20;;;;;;5156443;27;20026;-68
2022/06/26 11:04:59;;;;;;;;;;;38.10;32.80;;;;;;5156212;27;20055;-67
2022/06/26 11:07:24;;;;;;;;;;;37.90;32.70;;;;;;5156592;27;20027;-69
2022/06/26 11:09:55;;;;;;;;;;;38.00;32.80;;;;;;5155865;27;19991;-67
2022/06/26 11:12:20;;;;;;;;;;;38.10;33.10;;;;;;5156315;27;19930;-69
2022/06/26 11:14:46;;;;;;;;;;;38.00;33.00;;;;;;5155178;27;19903;-67
2022/06/26 11:17:12;;;;;;;;;;;38.10;33.20;;;;;;5156286;27;20247;-69
2022/06/26 11:22:22;;;;;;;;;;;38.00;33.20;;;;;;5155952;27;19910;-67
2022/06/26 11:24:51;;;;;;;;;;;38.10;33.50;;;;;;5156381;27;19903;-67
2022/06/26 11:27:21;;;;;;;;;;;38.00;33.70;;;;;;5155884;27;19938;-67
2022/06/26 11:29:47;;;;;;;;;;;38.10;32.60;;;;;;5156003;27;20366;-67
2022/06/26 11:32:13;;;;;;;;;;;38.20;33.50;;;;;;5155819;27;20018;-68
2022/06/26 11:34:48;;;;;;;;;;;38.40;33.30;;;;;;5155839;27;19903;-68
2022/06/26 11:37:14;;;;;;;;;;;38.40;32.60;;;;;;5155992;27;19907;-67
2022/06/26 11:39:41;;;;;;;;;;;38.40;32.00;;;;;;5155715;27;19914;-68
2022/06/26 11:42:13;;;;;;;;;;;38.20;31.80;;;;;;5155435;27;19903;-67
2022/06/26 11:44:46;;;;;;;;;;;38.20;33.10;;;;;;5155699;27;20008;-67
2022/06/26 11:47:12;;;;;;;;;;;38.20;32.80;;;;;;5155598;27;19930;-67
2022/06/26 11:49:38;;;;;;;;;;;38.30;32.70;;;;;;5155657;27;20262;-68
2022/06/26 11:52:04;;;;;;;;;;;38.30;32.50;;;;;;5155539;27;19907;-67
2022/06/26 11:54:30;;;;;;;;;;;38.40;32.80;;;;;;5155256;27;19903;-68
2022/06/26 11:56:55;;;;;;;;;;;38.50;33.30;;;;;;5155682;27;19925;-68
2022/06/26 11:59:21;;;;;;;;;;;38.40;32.50;;;;;;5155361;27;19903;-68
2022/06/26 12:01:47;;;;;;;;;;;38.40;32.20;;;;;;5155050;27;19910;-68
2022/06/26 12:04:16;;;;;;;;;;;38.50;32.60;;;;;;5154984;27;19926;-69
2022/06/26 12:06:48;;;;;;;;;;;38.20;32.40;;;;;;5155034;27;19915;-68
2022/06/26 12:09:16;;;;;;;;;;;38.10;33.10;;;;;;5155172;27;20415;-68
2022/06/26 12:11:43;;;;;;;;;;;38.30;32.70;;;;;;5154896;27;19956;-68
2022/06/26 12:14:09;;;;;;;;;;;38.40;32.30;;;;;;5155241;27;19913;-68
2022/06/26 12:16:43;;;;;;;;;;;38.30;32.20;;;;;;5155047;27;19903;-69
2022/06/26 12:19:09;;;;;;;;;;;38.30;32.90;;;;;;5155139;27;19994;-68
2022/06/26 12:21:34;;;;;;;;;;;38.30;33.60;;;;;;5154726;27;19954;-69
2022/06/26 12:24:00;;;;;;;;;;;38.40;33.00;;;;;;5154737;27;19971;-68
2022/06/26 12:26:28;;;;;;;;;;;38.30;32.70;;;;;;5154781;27;19956;-69
2022/06/26 12:29:00;;;;;;;;;;;38.20;33.30;;;;;;5154552;27;19953;-69
2022/06/26 12:31:26;;;;;;;;;;;38.50;34.00;;;;;;5154943;27;19911;-68
2022/06/26 12:33:52;;;;;;;;;;;38.60;33.50;;;;;;5154801;27;19903;-68
2022/06/26 12:36:18;;;;;;;;;;;38.70;32.50;;;;;;5154559;27;20337;-68
2022/06/26 12:38:45;;;;;;;;;;;38.70;31.30;;;;;;5154409;27;19907;-68
2022/06/26 12:41:17;;;;;;;;;;;38.50;32.30;;;;;;5154448;27;19907;-67
2022/06/26 12:43:47;;;;;;;;;;;38.50;32.70;;;;;;5154259;27;19903;-67
2022/06/26 12:46:13;;;;;;;;;;;38.50;31.30;;;;;;5154424;27;19903;-68
2022/06/26 12:48:39;;;;;;;;;;;38.40;31.60;;;;;;5154582;27;19966;-67
2022/06/26 12:51:05;;;;;;;;;;;38.30;31.90;;;;;;5154295;27;19942;-67
2022/06/26 12:53:31;;;;;;;;;;;38.50;32.70;;;;;;5154363;27;20414;-68
2022/06/26 12:55:57;;;;;;;;;;;38.60;32.10;;;;;;5153984;27;19910;-68
2022/06/26 12:58:24;;;;;;;;;;;38.60;31.60;;;;;;5154516;27;19998;-67
2022/06/26 13:00:49;;;;;;;;;;;38.60;31.50;;;;;;5152415;27;20335;-67
2022/06/26 13:03:15;;;;;;;;;;;38.60;31.50;;;;;;5153878;27;19910;-67
2022/06/26 13:05:41;;;;;;;;;;;38.60;31.30;;;;;;5153738;27;19929;-67
2022/06/26 13:08:07;;;;;;;;;;;38.60;30.40;;;;;;5153848;27;19903;-67
2022/06/26 13:10:32;;;;;;;;;;;38.70;30.50;;;;;;5153777;27;19911;-68
2022/06/26 13:12:58;;;;;;;;;;;38.80;30.50;;;;;;5154174;27;19990;-67
2022/06/26 13:15:24;;;;;;;;;;;38.70;30.50;;;;;;5153911;27;19963;-69
2022/06/26 13:17:50;;;;;;;;;;;38.70;29.80;;;;;;5153987;27;20279;-68
2022/06/26 13:20:16;;;;;;;;;;;38.50;29.20;;;;;;5152145;27;19903;-67
2022/06/26 13:22:42;;;;;;;;;;;38.40;30.10;;;;;;5153926;27;19907;-68
2022/06/26 13:25:08;;;;;;;;;;;37.90;29.50;;;;;;5153463;27;19910;-68
2022/06/26 13:27:34;;;;;;;;;;;37.70;31.10;;;;;;5153846;27;20362;-68
2022/06/26 13:29:59;;;;;;;;;;;37.60;33.30;;;;;;5153241;27;19983;-68
2022/06/26 13:32:25;;;;;;;;;;;37.50;31.90;;;;;;5153778;27;20271;-67
2022/06/26 13:34:51;;;;;;;;;;;37.50;31.90;;;;;;5153564;27;19989;-68
2022/06/26 13:37:18;;;;;;;;;;;37.60;33.20;;;;;;5153526;27;19910;-68
2022/06/26 13:39:43;;;;;;;;;;;37.70;33.00;;;;;;5153128;27;19971;-67
2022/06/26 13:42:09;;;;;;;;;;;37.80;32.70;;;;;;5153223;27;20370;-67
2022/06/26 13:44:35;;;;;;;;;;;37.60;33.20;;;;;;5153294;27;20362;-68
2022/06/26 13:47:01;;;;;;;;;;;37.20;32.60;;;;;;5153324;27;19964;-69
2022/06/26 13:49:27;;;;;;;;;;;37.20;34.30;;;;;;5153717;27;19915;-69
2022/06/26 13:51:52;;;;;;;;;;;37.20;33.50;;;;;;5153244;27;19934;-69
2022/06/26 13:54:18;;;;;;;;;;;37.40;34.50;;;;;;5153621;27;19910;-69
2022/06/26 13:56:44;;;;;;;;;;;37.40;35.40;;;;;;5153269;27;19926;-67
2022/06/26 13:59:10;;;;;;;;;;;37.40;33.50;;;;;;5134600;27;19914;-68
2022/06/26 14:01:36;;;;;;;;;;;37.30;34.00;;;;;;5153363;27;19978;-68
2022/06/26 14:04:02;;;;;;;;;;;37.50;34.80;;;;;;5153011;27;19903;-68
2022/06/26 14:06:28;;;;;;;;;;;37.10;35.80;;;;;;5152954;27;20343;-68
2022/06/26 14:08:53;;;;;;;;;;;36.90;35.50;;;;;;5152968;27;19906;-68
2022/06/26 14:11:20;;;;;;;;;;;37.00;34.50;;;;;;5153457;27;19997;-67
2022/06/26 14:13:46;;;;;;;;;;;37.10;33.90;;;;;;5152917;27;19903;-67
2022/06/26 14:16:12;;;;;;;;;;;37.20;34.40;;;;;;5152851;27;19910;-68
2022/06/26 14:18:38;;;;;;;;;;;37.40;34.90;;;;;;5153405;27;20211;-67
2022/06/26 14:21:04;;;;;;;;;;;37.30;33.70;;;;;;5153263;27;20282;-69
2022/06/26 14:26:16;;;;;;;;;;;37.30;34.70;;;;;;5153133;27;19933;-68
2022/06/26 14:28:42;;;;;;;;;;;37.10;33.30;;;;;;5152747;27;19957;-68
2022/06/26 14:31:08;;;;;;;;;;;37.10;33.00;;;;;;5153097;27;19907;-67